createdAt,value
2022-09-10T00:01:24.381Z,1.00
2022-09-10T00:03:54.692Z,1.00
2022-09-10T00:06:26.073Z,1.00
2022-09-10T00:08:56.201Z,1.77
2022-09-10T00:11:24.975Z,0.87
2022-09-10T00:13:53.620Z,1.30
2022-09-10T00:16:21.991Z,1.00
2022-09-10T00:18:51.007Z,1.20
2022-09-10T00:21:21.819Z,0.83
2022-09-10T00:23:50.750Z,1.00
2022-09-10T00:26:21.719Z,1.10
2022-09-10T00:28:51.135Z,1.20
2022-09-10T00:31:20.142Z,0.83
2022-09-10T00:33:49.470Z,1.20
2022-09-10T00:36:21.603Z,1.23
2022-09-10T00:38:50.427Z,1.00
2022-09-10T00:41:20.044Z,1.40
2022-09-10T00:43:57.175Z,1.10
2022-09-10T00:46:31.221Z,0.90
2022-09-10T00:49:02.462Z,1.37
2022-09-10T00:51:36.038Z,1.20
2022-09-10T00:54:06.055Z,0.90
2022-09-10T00:56:34.827Z,0.90
2022-09-10T00:59:05.492Z,1.47
2022-09-10T01:01:34.699Z,0.90
2022-09-10T01:04:04.909Z,1.50
2022-09-10T01:06:35.104Z,1.03
2022-09-10T01:09:03.272Z,1.37
2022-09-10T01:11:46.693Z,1.30
2022-09-10T01:14:30.928Z,0.80
2022-09-10T01:17:05.403Z,1.17
2022-09-10T01:20:02.326Z,1.20
2022-09-10T01:22:46.085Z,0.90
2022-09-10T01:25:23.899Z,1.00
2022-09-10T01:27:55.785Z,1.00
2022-09-10T01:30:27.656Z,1.03
2022-09-10T01:33:06.939Z,1.07
2022-09-10T01:35:44.550Z,1.10
2022-09-10T01:38:16.243Z,1.40
2022-09-10T01:40:46.407Z,0.87
2022-09-10T01:43:19.911Z,0.90
2022-09-10T01:46:03.261Z,1.13
2022-09-10T01:49:01.667Z,1.30
2022-09-10T01:51:44.149Z,1.23
2022-09-10T01:54:24.790Z,1.30
2022-09-10T01:57:02.109Z,1.40
2022-09-10T01:59:39.790Z,1.33
2022-09-10T02:02:13.265Z,1.03
2022-09-10T02:04:43.562Z,1.60
2022-09-10T02:07:13.880Z,1.37
2022-09-10T02:09:43.551Z,1.20
2022-09-10T02:12:19.787Z,1.20
2022-09-10T02:14:55.281Z,1.30
2022-09-10T02:17:41.882Z,1.20
2022-09-10T02:20:14.453Z,1.33
2022-09-10T02:22:48.933Z,1.37
2022-09-10T02:25:17.358Z,1.43
2022-09-10T02:27:45.952Z,1.30
2022-09-10T02:30:16.046Z,1.30
2022-09-10T02:32:44.269Z,1.53
2022-09-10T02:35:15.551Z,1.70
2022-09-10T02:37:46.453Z,2.03
2022-09-10T02:40:14.887Z,1.70
2022-09-10T02:42:46.694Z,1.70
2022-09-10T02:45:20.118Z,2.03
2022-09-10T02:47:48.868Z,1.40
2022-09-10T02:50:18.085Z,2.57
2022-09-10T02:52:47.382Z,1.50
2022-09-10T02:55:16.221Z,1.80
2022-09-10T02:57:45.397Z,1.40
2022-09-10T03:00:14.322Z,1.67
2022-09-10T03:02:43.747Z,1.70
2022-09-10T03:05:13.928Z,2.03
2022-09-10T03:07:42.952Z,1.60
2022-09-10T03:10:11.595Z,1.80
2022-09-10T03:12:40.800Z,2.13
2022-09-10T03:15:10.111Z,1.80
2022-09-10T03:17:38.248Z,1.50
2022-09-10T03:20:08.956Z,2.07
2022-09-10T03:22:38.290Z,1.67
2022-09-10T03:25:07.978Z,2.30
2022-09-10T03:27:36.787Z,1.50
2022-09-10T03:30:09.586Z,1.50
2022-09-10T03:32:38.184Z,1.60
2022-09-10T03:35:10.381Z,2.23
2022-09-10T03:37:39.653Z,1.90
2022-09-10T03:40:09.661Z,1.67
2022-09-10T03:42:38.678Z,1.57
2022-09-10T03:45:08.093Z,1.90
2022-09-10T03:47:37.586Z,1.77
2022-09-10T03:50:06.777Z,1.60
2022-09-10T03:52:36.390Z,34.70
2022-09-10T03:55:05.269Z,34.57
2022-09-10T03:57:34.405Z,27.77
2022-09-10T04:00:02.584Z,19.87
2022-09-10T04:02:31.616Z,10.07
2022-09-10T04:04:59.908Z,5.00
2022-09-10T04:07:28.171Z,2.60
2022-09-10T04:09:57.704Z,2.80
2022-09-10T04:12:27.048Z,2.03
2022-09-10T04:14:55.260Z,2.43
2022-09-10T04:17:25.366Z,1.90
2022-09-10T04:19:53.775Z,2.00
2022-09-10T04:22:22.744Z,2.40
2022-09-10T04:24:51.606Z,2.07
2022-09-10T04:27:21.108Z,1.93
2022-09-10T04:29:49.278Z,2.30
2022-09-10T04:32:19.419Z,2.97
2022-09-10T04:34:48.219Z,2.37
2022-09-10T04:37:19.351Z,2.43
2022-09-10T04:39:48.211Z,2.90
2022-09-10T04:42:20.283Z,2.30
2022-09-10T04:44:53.788Z,2.30
2022-09-10T04:47:22.250Z,2.20
2022-09-10T04:49:50.469Z,2.90
2022-09-10T04:52:23.054Z,12.60
2022-09-10T04:54:52.418Z,12.10
2022-09-10T04:57:20.954Z,7.37
2022-09-10T04:59:49.153Z,4.70
2022-09-10T05:02:18.782Z,3.60
2022-09-10T05:04:47.187Z,138.50
2022-09-10T05:07:16.459Z,104.70
2022-09-10T05:09:44.567Z,55.90
2022-09-10T05:12:19.321Z,35.80
2022-09-10T05:14:49.052Z,20.90
2022-09-10T05:17:20.098Z,14.10
2022-09-10T05:19:48.489Z,8.23
2022-09-10T05:22:16.703Z,5.80
2022-09-10T05:24:44.890Z,4.53
2022-09-10T05:27:12.949Z,3.00
2022-09-10T05:29:41.490Z,2.40
2022-09-10T05:32:11.506Z,2.20
2022-09-10T05:34:41.184Z,2.10
2022-09-10T05:37:09.458Z,3.13
2022-09-10T05:39:38.273Z,2.40
2022-09-10T05:42:07.235Z,2.20
2022-09-10T05:44:36.480Z,2.10
2022-09-10T05:47:04.940Z,1.60
2022-09-10T05:49:34.065Z,2.00
2022-09-10T05:52:05.914Z,6.10
2022-09-10T05:54:35.925Z,53.10
2022-09-10T05:57:04.242Z,38.90
2022-09-10T05:59:33.126Z,24.00
2022-09-10T06:02:01.633Z,15.87
2022-09-10T06:04:31.215Z,8.63
2022-09-10T06:07:01.816Z,5.40
2022-09-10T06:09:31.617Z,3.60
2022-09-10T06:12:09.243Z,2.80
2022-09-10T06:14:38.078Z,2.43
2022-09-10T06:17:06.347Z,2.00
2022-09-10T06:19:34.484Z,2.17
2022-09-10T06:22:02.675Z,2.40
2022-09-10T06:24:36.587Z,2.80
2022-09-10T06:27:05.417Z,2.33
2022-09-10T06:29:36.473Z,2.03
2022-09-10T06:32:06.196Z,2.57
2022-09-10T06:34:35.764Z,1.90
2022-09-10T06:37:06.145Z,2.20
2022-09-10T06:39:38.788Z,1.97
2022-09-10T06:42:08.091Z,2.20
2022-09-10T06:44:54.913Z,2.20
2022-09-10T06:50:37.598Z,2.23
2022-09-10T06:53:06.113Z,2.63
2022-09-10T06:55:37.730Z,2.83
2022-09-10T06:58:06.270Z,2.37
2022-09-10T07:00:39.278Z,1.83
2022-09-10T07:03:07.635Z,2.00
2022-09-10T07:05:35.895Z,2.33
2022-09-10T07:08:05.517Z,2.07
2022-09-10T07:10:35.317Z,2.07
2022-09-10T07:13:04.966Z,2.20
2022-09-10T07:15:34.054Z,2.20
2022-09-10T07:18:02.333Z,2.27
2022-09-10T07:20:31.007Z,1.90
2022-09-10T07:22:59.742Z,1.80
2022-09-10T07:25:31.449Z,2.00
2022-09-10T07:28:13.018Z,2.90
2022-09-10T07:30:44.340Z,2.40
2022-09-10T07:33:14.465Z,2.63
2022-09-10T07:35:44.527Z,2.40
2022-09-10T07:38:15.438Z,2.57
2022-09-10T07:40:45.000Z,2.13
2022-09-10T07:43:15.422Z,2.53
2022-09-10T07:45:44.573Z,2.30
2022-09-10T07:48:13.195Z,2.47
2022-09-10T07:50:42.126Z,2.57
2022-09-10T07:53:11.234Z,2.17
2022-09-10T07:55:40.041Z,2.87
2022-09-10T07:58:08.342Z,2.33
2022-09-10T08:00:40.291Z,2.60
2022-09-10T08:03:12.471Z,2.80
2022-09-10T08:05:41.000Z,2.77
2022-09-10T08:08:10.491Z,3.03
2022-09-10T08:10:38.847Z,2.80
2022-09-10T08:13:08.031Z,2.90
2022-09-10T08:15:36.217Z,2.50
2022-09-10T08:18:06.625Z,3.27
2022-09-10T08:20:35.667Z,3.07
2022-09-10T08:23:04.836Z,2.30
2022-09-10T08:25:33.534Z,2.27
2022-09-10T08:28:03.089Z,2.97
2022-09-10T08:30:32.875Z,3.03
2022-09-10T08:33:01.363Z,2.60
2022-09-10T08:35:31.023Z,2.73
2022-09-10T08:37:59.177Z,3.00
2022-09-10T08:40:27.408Z,2.80
2022-09-10T08:42:58.461Z,3.63
2022-09-10T08:45:32.656Z,3.20
2022-09-10T08:48:07.057Z,3.67
2022-09-10T08:50:46.930Z,3.40
2022-09-10T08:53:28.047Z,2.90
2022-09-10T08:56:03.333Z,2.63
2022-09-10T08:58:41.404Z,3.13
2022-09-10T09:01:16.351Z,3.10
2022-09-10T09:03:47.186Z,3.30
2022-09-10T09:06:26.930Z,4.33
2022-09-10T09:08:55.961Z,4.07
2022-09-10T09:11:58.981Z,4.00
2022-09-10T09:15:18.999Z,3.30
2022-09-10T09:18:06.636Z,4.50
2022-09-10T09:20:46.344Z,3.93
2022-09-10T09:23:23.125Z,3.97
2022-09-10T09:25:56.416Z,3.73
2022-09-10T09:28:36.594Z,3.33
2022-09-10T09:31:09.682Z,3.97
2022-09-10T09:33:39.858Z,3.60
2022-09-10T09:36:12.676Z,3.90
2022-09-10T09:38:46.159Z,4.20
2022-09-10T09:41:22.162Z,3.70
2022-09-10T09:43:56.821Z,4.70
2022-09-10T09:46:26.360Z,3.60
2022-09-10T09:49:01.017Z,4.40
2022-09-10T09:51:35.362Z,4.37
2022-09-10T09:56:59.915Z,4.70
2022-09-10T09:59:29.810Z,5.60
2022-09-10T10:02:05.276Z,5.50
2022-09-10T10:04:36.211Z,5.47
2022-09-10T10:07:07.422Z,4.97
2022-09-10T10:09:41.493Z,4.83
2022-09-10T10:12:20.570Z,4.73
2022-09-10T10:14:49.048Z,3.90
2022-09-10T10:17:45.136Z,5.83
2022-09-10T10:20:16.149Z,4.60
2022-09-10T10:22:45.526Z,5.30
2022-09-10T10:25:40.408Z,5.80
2022-09-10T10:28:17.428Z,20.47
2022-09-10T10:30:47.341Z,32.27
2022-09-10T10:33:21.150Z,16.23
2022-09-10T10:35:56.390Z,9.67
2022-09-10T10:38:34.752Z,7.20
2022-09-10T10:41:39.270Z,5.40
2022-09-10T10:44:25.253Z,5.70
2022-09-10T10:47:05.253Z,5.20
2022-09-10T10:49:49.914Z,5.90
2022-09-10T10:52:27.446Z,5.10
2022-09-10T10:55:08.161Z,4.43
2022-09-10T10:57:56.658Z,5.03
2022-09-10T11:00:27.573Z,5.17
2022-09-10T11:03:03.585Z,5.10
2022-09-10T11:05:34.847Z,4.50
2022-09-10T11:08:09.124Z,5.20
2022-09-10T11:10:40.928Z,6.90
2022-09-10T11:13:18.054Z,5.50
2022-09-10T11:15:52.407Z,6.03
2022-09-10T11:18:27.377Z,6.53
2022-09-10T11:21:03.203Z,30.67
2022-09-10T11:23:36.969Z,37.40
2022-09-10T11:26:10.543Z,21.13
2022-09-10T11:28:44.636Z,13.67
2022-09-10T11:31:18.445Z,8.40
2022-09-10T11:33:53.264Z,7.00
2022-09-10T11:36:28.491Z,7.10
2022-09-10T11:39:09.045Z,6.63
2022-09-10T11:41:42.152Z,6.90
2022-09-10T11:44:36.731Z,5.40
2022-09-10T11:47:14.382Z,7.77
2022-09-10T11:49:48.355Z,6.57
2022-09-10T11:52:17.453Z,5.37
2022-09-10T11:54:47.598Z,5.87
2022-09-10T11:57:28.273Z,5.47
2022-09-10T12:00:08.738Z,5.70
2022-09-10T12:03:11.151Z,5.57
2022-09-10T12:05:54.214Z,6.43
2022-09-10T12:08:40.354Z,5.80
2022-09-10T12:11:19.203Z,5.37
2022-09-10T12:13:50.950Z,6.27
2022-09-10T12:16:25.342Z,5.53
2022-09-10T12:18:57.677Z,5.93
2022-09-10T12:21:34.247Z,5.53
2022-09-10T12:24:07.393Z,5.20
2022-09-10T12:26:43.849Z,5.30
2022-09-10T12:29:40.920Z,5.50
2022-09-10T12:32:36.982Z,5.73
2022-09-10T12:35:46.688Z,5.70
2022-09-10T12:39:17.348Z,4.90
2022-09-10T12:42:03.180Z,5.17
2022-09-10T12:50:01.370Z,22.50
2022-09-10T12:53:24.666Z,18.80
2022-09-10T12:56:58.748Z,6.67
2022-09-10T13:00:08.324Z,7.40
2022-09-10T13:02:54.003Z,5.37
2022-09-10T13:05:41.610Z,5.27
2022-09-10T13:08:49.259Z,5.17
2022-09-10T13:17:11.158Z,4.50
2022-09-10T13:20:35.615Z,5.17
2022-09-10T13:23:06.165Z,4.93
2022-09-10T13:25:41.534Z,6.57
2022-09-10T13:28:47.028Z,6.00
2022-09-10T13:31:22.242Z,5.70
2022-09-10T13:34:36.155Z,5.70
2022-09-10T13:37:21.344Z,5.20
2022-09-10T13:40:23.261Z,5.70
2022-09-10T13:43:14.607Z,4.53
2022-09-10T13:46:15.607Z,6.03
2022-09-10T13:49:19.899Z,5.60
2022-09-10T13:52:16.874Z,5.10
2022-09-10T13:54:54.993Z,5.33
2022-09-10T13:57:30.073Z,4.60
2022-09-10T14:00:06.374Z,4.40
2022-09-10T14:02:44.366Z,4.70
2022-09-10T14:05:35.224Z,4.63
2022-09-10T14:08:09.053Z,5.07
2022-09-10T14:10:50.829Z,4.53
2022-09-10T14:13:26.646Z,4.30
2022-09-10T14:16:00.955Z,5.07
2022-09-10T14:18:39.506Z,4.80
2022-09-10T14:21:13.920Z,3.90
2022-09-10T14:23:46.032Z,20.30
2022-09-10T14:26:27.163Z,15.53
2022-09-10T14:29:01.657Z,8.17
2022-09-10T14:31:40.881Z,5.60
2022-09-10T14:34:34.594Z,5.57
2022-09-10T14:37:32.472Z,4.83
2022-09-10T14:40:08.711Z,4.33
2022-09-10T14:42:38.958Z,4.40
2022-09-10T14:45:48.287Z,4.00
2022-09-10T14:48:37.553Z,4.77
2022-09-10T14:51:17.746Z,4.40
2022-09-10T14:53:57.480Z,4.43
2022-09-10T14:56:41.604Z,3.90
2022-09-10T14:59:19.022Z,3.20
2022-09-10T15:01:51.975Z,3.43
2022-09-10T15:04:24.656Z,4.30
2022-09-10T15:06:56.146Z,3.40
2022-09-10T15:09:28.074Z,3.47
2022-09-10T15:11:59.330Z,3.03
2022-09-10T15:14:28.278Z,2.60
2022-09-10T15:16:56.806Z,2.27
2022-09-10T15:19:26.085Z,2.17
2022-09-10T15:21:54.711Z,1.73
2022-09-10T15:24:26.054Z,1.57
2022-09-10T15:26:56.458Z,1.67
2022-09-10T15:29:26.052Z,1.53
2022-09-10T15:31:54.598Z,1.33
2022-09-10T15:34:22.991Z,26.67
2022-09-10T15:36:52.937Z,21.20
2022-09-10T15:39:21.778Z,8.43
2022-09-10T15:41:51.538Z,2.93
2022-09-10T15:44:19.940Z,2.50
2022-09-10T15:46:48.265Z,1.87
2022-09-10T15:49:16.468Z,2.53
2022-09-10T15:51:45.864Z,1.90
2022-09-10T15:54:14.568Z,2.40
2022-09-10T15:56:44.172Z,2.17
2022-09-10T15:59:16.448Z,2.73
2022-09-10T16:01:44.954Z,3.00
2022-09-10T16:04:15.446Z,3.10
2022-09-10T16:06:43.847Z,2.50
2022-09-10T16:09:14.494Z,2.63
2022-09-10T16:11:44.447Z,3.60
2022-09-10T16:14:16.767Z,2.80
2022-09-10T16:16:45.832Z,3.00
2022-09-10T16:19:14.647Z,2.50
2022-09-10T16:21:43.417Z,2.60
2022-09-10T16:24:11.696Z,2.60
2022-09-10T16:26:41.631Z,3.07
2022-09-10T16:29:15.798Z,3.50
2022-09-10T16:31:45.431Z,5.00
2022-09-10T16:34:17.483Z,3.47
2022-09-10T16:36:48.862Z,4.27
2022-09-10T16:39:18.716Z,5.57
2022-09-10T16:41:49.426Z,5.37
2022-09-10T16:44:20.185Z,7.27
2022-09-10T16:46:48.793Z,6.63
2022-09-10T16:49:19.522Z,7.93
2022-09-10T16:51:50.221Z,25.37
2022-09-10T16:54:21.044Z,13.07
2022-09-10T16:56:51.399Z,8.63
2022-09-10T16:59:22.949Z,7.20
2022-09-10T17:01:52.707Z,9.50
2022-09-10T17:04:28.284Z,8.23
2022-09-10T17:06:57.755Z,9.53
2022-09-10T17:09:26.882Z,9.07
2022-09-10T17:11:55.354Z,8.83
2022-09-10T17:14:25.630Z,10.30
2022-09-10T17:16:54.227Z,9.23
2022-09-10T17:19:26.682Z,8.57
2022-09-10T17:21:58.083Z,10.20
2022-09-10T17:24:29.796Z,9.27
2022-09-10T17:27:01.531Z,9.07
2022-09-10T17:29:36.185Z,11.03
2022-09-10T17:32:06.282Z,9.37
2022-09-10T17:34:36.154Z,9.20
2022-09-10T17:37:06.358Z,8.30
2022-09-10T17:39:36.193Z,7.97
2022-09-10T17:42:07.085Z,9.17
2022-09-10T17:44:38.226Z,8.43
2022-09-10T17:47:09.953Z,7.23
2022-09-10T17:49:39.227Z,8.27
2022-09-10T17:52:07.654Z,8.73
2022-09-10T17:54:35.936Z,9.93
2022-09-10T17:57:04.270Z,9.50
2022-09-10T17:59:32.626Z,7.53
2022-09-10T18:02:02.418Z,9.67
2022-09-10T18:04:31.216Z,9.80
2022-09-10T18:07:01.101Z,9.10
2022-09-10T18:09:29.600Z,25.03
2022-09-10T18:11:57.898Z,26.30
2022-09-10T18:14:26.836Z,14.33
2022-09-10T18:16:55.799Z,10.30
2022-09-10T18:19:27.359Z,8.07
2022-09-10T18:21:55.679Z,8.67
2022-09-10T18:24:25.427Z,8.20
2022-09-10T18:26:55.142Z,8.30
2022-09-10T18:29:25.397Z,8.97
2022-09-10T18:31:55.689Z,7.93
2022-09-10T18:34:27.798Z,7.70
2022-09-10T18:36:57.741Z,8.90
2022-09-10T18:39:28.173Z,9.50
2022-09-10T18:41:57.155Z,9.37
2022-09-10T18:44:28.019Z,9.60
2022-09-10T18:46:56.876Z,9.67
2022-09-10T18:49:27.725Z,10.30
2022-09-10T18:51:57.269Z,9.17
2022-09-10T18:54:28.081Z,9.77
2022-09-10T18:56:57.488Z,9.07
2022-09-10T18:59:26.749Z,9.67
2022-09-10T19:01:56.112Z,8.50
2022-09-10T19:04:27.950Z,8.00
2022-09-10T19:06:57.436Z,9.00
2022-09-10T19:09:26.804Z,8.70
2022-09-10T19:11:56.814Z,7.90
2022-09-10T19:14:26.874Z,7.80
2022-09-10T19:16:56.448Z,8.70
2022-09-10T19:19:27.789Z,8.27
2022-09-10T19:21:59.419Z,8.53
2022-09-10T19:24:51.130Z,8.77
2022-09-10T19:27:17.743Z,7.13
2022-09-10T19:29:47.342Z,7.83
2022-09-10T19:32:16.936Z,8.13
2022-09-10T19:34:46.569Z,9.20
2022-09-10T19:37:14.734Z,8.70
2022-09-10T19:39:43.119Z,9.40
2022-09-10T19:42:11.664Z,8.50
2022-09-10T19:44:39.894Z,8.80
2022-09-10T19:47:08.105Z,7.87
2022-09-10T19:49:36.320Z,7.60
2022-09-10T19:52:05.961Z,7.53
2022-09-10T19:54:35.028Z,7.47
2022-09-10T19:57:03.292Z,8.07
2022-09-10T19:59:31.440Z,7.50
2022-09-10T20:01:59.741Z,8.30
2022-09-10T20:04:28.686Z,8.00
2022-09-10T20:06:56.801Z,9.00
2022-09-10T20:09:26.685Z,7.40
2022-09-10T20:11:54.839Z,7.50
2022-09-10T20:14:22.957Z,7.37
2022-09-10T20:16:51.187Z,7.43
2022-09-10T20:19:21.835Z,8.30
2022-09-10T20:21:50.881Z,7.47
2022-09-10T20:24:19.081Z,7.60
2022-09-10T20:26:49.021Z,6.60
2022-09-10T20:29:19.139Z,7.57
2022-09-10T20:31:48.572Z,9.13
2022-09-10T20:34:19.502Z,7.37
2022-09-10T20:36:48.066Z,6.80
2022-09-10T20:39:18.015Z,6.17
2022-09-10T20:41:48.262Z,6.50
2022-09-10T20:44:17.888Z,5.67
2022-09-10T20:46:46.503Z,6.17
2022-09-10T20:49:16.298Z,7.20
2022-09-10T20:51:45.354Z,6.63
2022-09-10T20:54:15.539Z,7.20
2022-09-10T20:56:44.467Z,6.93
2022-09-10T20:59:15.856Z,7.97
2022-09-10T21:01:46.275Z,7.43
2022-09-10T21:04:15.118Z,7.07
2022-09-10T21:06:43.502Z,6.80
2022-09-10T21:09:12.581Z,7.00
2022-09-10T21:11:41.103Z,7.47
2022-09-10T21:14:10.062Z,7.93
2022-09-10T21:16:41.277Z,7.67
2022-09-10T21:19:12.255Z,8.57
2022-09-10T21:21:41.598Z,10.97
2022-09-10T21:24:12.298Z,11.07
2022-09-10T21:26:43.252Z,9.13
2022-09-10T21:29:14.353Z,10.43
2022-09-10T21:31:45.267Z,10.90
2022-09-10T21:34:14.136Z,8.80
2022-09-10T21:36:43.607Z,9.33
2022-09-10T21:39:14.385Z,9.20
2022-09-10T21:41:44.398Z,8.40
2022-09-10T21:44:14.667Z,7.27
2022-09-10T21:46:45.220Z,9.23
2022-09-10T21:49:13.965Z,7.50
2022-09-10T21:51:42.878Z,8.10
2022-09-10T21:54:15.395Z,8.47
2022-09-10T21:56:43.592Z,8.20
2022-09-10T21:59:13.540Z,10.23
2022-09-10T22:01:44.690Z,8.60
2022-09-10T22:04:16.802Z,9.87
2022-09-10T22:06:47.086Z,10.40
2022-09-10T22:09:16.953Z,10.90
2022-09-10T22:11:47.150Z,10.30
2022-09-10T22:14:17.041Z,10.13
2022-09-10T22:16:46.983Z,9.97
2022-09-10T22:19:18.022Z,10.30
2022-09-10T22:21:46.255Z,9.80
2022-09-10T22:24:17.307Z,10.00
2022-09-10T22:26:46.268Z,8.63
2022-09-10T22:29:17.159Z,11.77
2022-09-10T22:31:47.442Z,11.00
2022-09-10T22:34:17.079Z,10.63
2022-09-10T22:36:46.517Z,11.20
2022-09-10T22:39:16.779Z,10.53
2022-09-10T22:41:46.546Z,10.87
2022-09-10T22:44:15.111Z,8.77
2022-09-10T22:46:43.660Z,10.77
2022-09-10T22:49:15.974Z,12.07
2022-09-10T22:51:44.581Z,12.40
2022-09-10T22:54:12.872Z,12.07
2022-09-10T22:56:42.046Z,11.60
2022-09-10T22:59:13.985Z,11.57
2022-09-10T23:01:43.381Z,12.60
2022-09-10T23:04:14.491Z,11.53
2022-09-10T23:06:42.630Z,11.70
2022-09-10T23:09:13.800Z,11.10
2022-09-10T23:11:44.024Z,11.53
2022-09-10T23:14:14.709Z,12.37
2022-09-10T23:16:44.722Z,11.13
2022-09-10T23:19:16.188Z,12.40
2022-09-10T23:21:47.007Z,11.70
2022-09-10T23:24:17.093Z,10.27
2022-09-10T23:26:46.235Z,11.07
2022-09-10T23:29:17.504Z,10.20
2022-09-10T23:31:47.813Z,10.13
2022-09-10T23:34:19.218Z,11.40
2022-09-10T23:36:49.104Z,10.73
2022-09-10T23:39:19.777Z,11.20
2022-09-10T23:41:49.096Z,11.77
2022-09-10T23:44:17.702Z,9.87
2022-09-10T23:46:46.049Z,12.20
2022-09-10T23:49:14.268Z,10.83
2022-09-10T23:51:44.153Z,10.47
2022-09-10T23:54:13.189Z,11.13
2022-09-10T23:56:42.283Z,11.13
2022-09-10T23:59:10.501Z,10.30
